createdAt,value
2022-08-25T00:00:50.834Z,19.69
2022-08-25T00:03:58.311Z,19.71
2022-08-25T00:07:07.853Z,19.73
2022-08-25T00:10:14.650Z,19.73
2022-08-25T00:16:38.232Z,19.73
2022-08-25T00:19:46.072Z,19.74
2022-08-25T00:22:54.614Z,19.74
2022-08-25T00:26:01.713Z,19.69
2022-08-25T00:29:09.512Z,19.68
2022-08-25T00:32:17.193Z,19.69
2022-08-25T00:38:40.492Z,19.70
2022-08-25T00:41:47.770Z,19.69
2022-08-25T00:44:56.422Z,19.67
2022-08-25T00:48:04.396Z,19.62
2022-08-25T00:51:14.033Z,19.59
2022-08-25T00:54:39.631Z,19.49
2022-08-25T00:57:49.851Z,19.45
2022-08-25T01:00:59.991Z,19.31
2022-08-25T01:04:07.432Z,19.22
2022-08-25T01:07:17.922Z,19.17
2022-08-25T01:10:26.271Z,19.12
2022-08-25T01:13:44.251Z,19.07
2022-08-25T01:16:53.921Z,19.02
2022-08-25T01:20:02.273Z,19.00
2022-08-25T01:23:09.449Z,18.99
2022-08-25T01:26:30.055Z,18.98
2022-08-25T01:29:39.829Z,18.99
2022-08-25T01:32:47.555Z,18.95
2022-08-25T01:35:54.555Z,18.93
2022-08-25T01:39:02.391Z,18.90
2022-08-25T01:42:32.090Z,18.90
2022-08-25T01:45:41.451Z,18.93
2022-08-25T01:48:48.832Z,18.97
2022-08-25T01:52:24.251Z,19.00
2022-08-25T01:55:31.930Z,18.99
2022-08-25T01:58:41.331Z,18.98
2022-08-25T02:01:51.145Z,19.01
2022-08-25T02:05:09.311Z,19.04
2022-08-25T02:08:16.550Z,19.11
2022-08-25T02:11:26.071Z,19.15
2022-08-25T02:14:33.350Z,19.19
2022-08-25T02:17:40.792Z,19.23
2022-08-25T02:20:48.710Z,19.23
2022-08-25T02:23:55.950Z,19.26
2022-08-25T02:27:03.670Z,19.28
2022-08-25T02:30:11.670Z,19.19
2022-08-25T02:33:17.699Z,19.27
2022-08-25T02:36:35.654Z,19.25
2022-08-25T02:39:44.196Z,19.26
2022-08-25T02:42:52.715Z,19.22
2022-08-25T02:45:59.964Z,19.13
2022-08-25T02:49:09.376Z,19.15
2022-08-25T02:52:17.291Z,19.14
2022-08-25T02:55:25.291Z,19.10
2022-08-25T02:58:32.438Z,19.14
2022-08-25T03:01:39.687Z,19.16
2022-08-25T03:04:47.581Z,19.15
2022-08-25T03:07:54.990Z,19.13
2022-08-25T03:11:03.036Z,19.17
2022-08-25T03:14:12.633Z,19.14
2022-08-25T03:17:19.872Z,19.17
2022-08-25T03:20:28.251Z,19.19
2022-08-25T03:23:36.852Z,19.16
2022-08-25T03:26:56.632Z,19.19
2022-08-25T03:30:05.551Z,19.22
2022-08-25T03:33:13.131Z,19.21
2022-08-25T03:36:20.651Z,19.23
2022-08-25T03:39:29.069Z,19.24
2022-08-25T03:42:36.790Z,19.19
2022-08-25T03:45:46.344Z,19.25
2022-08-25T03:48:55.952Z,19.22
2022-08-25T03:52:04.013Z,19.14
2022-08-25T03:55:13.833Z,19.08
2022-08-25T03:58:20.342Z,19.08
2022-08-25T04:01:27.972Z,19.07
2022-08-25T04:04:35.846Z,19.07
2022-08-25T04:07:49.793Z,19.06
2022-08-25T04:10:57.153Z,19.02
2022-08-25T04:14:04.751Z,19.05
2022-08-25T04:17:12.591Z,19.11
2022-08-25T04:20:20.211Z,19.15
2022-08-25T04:23:26.754Z,19.17
2022-08-25T04:26:49.933Z,19.21
2022-08-25T04:30:17.351Z,19.19
2022-08-25T04:33:24.736Z,19.26
2022-08-25T04:36:31.912Z,19.31
2022-08-25T04:39:39.024Z,19.31
2022-08-25T04:42:45.711Z,19.31
2022-08-25T04:46:02.920Z,19.34
2022-08-25T04:49:11.045Z,19.33
2022-08-25T04:52:17.974Z,19.33
2022-08-25T04:55:25.713Z,19.33
2022-08-25T04:58:32.510Z,19.37
2022-08-25T05:01:39.950Z,19.42
2022-08-25T05:04:48.897Z,19.44
2022-08-25T05:07:58.551Z,19.36
2022-08-25T05:11:16.110Z,19.31
2022-08-25T05:14:26.849Z,19.27
2022-08-25T05:17:35.992Z,19.32
2022-08-25T05:20:44.673Z,19.41
2022-08-25T05:23:53.093Z,19.52
2022-08-25T05:27:01.594Z,19.58
2022-08-25T05:30:09.472Z,19.64
2022-08-25T05:33:18.502Z,19.58
2022-08-25T05:36:27.953Z,19.64
2022-08-25T05:39:37.272Z,19.57
2022-08-25T05:42:53.289Z,19.63
2022-08-25T05:46:03.872Z,19.65
2022-08-25T05:49:11.333Z,19.59
2022-08-25T05:52:25.352Z,19.61
2022-08-25T05:55:33.256Z,19.60
2022-08-25T05:58:42.232Z,19.74
2022-08-25T06:02:08.814Z,19.74
2022-08-25T06:05:25.752Z,19.85
2022-08-25T06:08:35.632Z,19.93
2022-08-25T06:11:43.614Z,19.91
2022-08-25T06:14:51.673Z,19.94
2022-08-25T06:18:01.053Z,20.00
2022-08-25T06:21:16.894Z,20.08
2022-08-25T06:24:24.835Z,20.21
2022-08-25T06:27:32.061Z,20.22
2022-08-25T06:30:40.568Z,20.24
2022-08-25T06:33:47.198Z,20.33
2022-08-25T06:36:55.671Z,20.41
2022-08-25T06:40:03.622Z,20.43
2022-08-25T06:43:12.154Z,20.30
2022-08-25T06:46:35.628Z,20.29
2022-08-25T06:49:46.555Z,20.24
2022-08-25T06:52:54.792Z,20.21
2022-08-25T06:56:06.766Z,20.16
2022-08-25T06:59:14.169Z,20.36
2022-08-25T07:02:26.443Z,20.29
2022-08-25T07:05:43.564Z,20.30
2022-08-25T07:08:53.991Z,20.50
2022-08-25T07:12:02.235Z,20.76
2022-08-25T07:15:19.841Z,20.84
2022-08-25T07:18:32.274Z,20.90
2022-08-25T07:21:42.473Z,20.91
2022-08-25T07:24:53.125Z,21.05
2022-08-25T07:27:59.953Z,21.07
2022-08-25T07:31:14.868Z,21.18
2022-08-25T07:34:42.616Z,21.27
2022-08-25T07:37:53.726Z,21.38
2022-08-25T07:41:05.100Z,21.47
2022-08-25T07:44:12.261Z,21.41
2022-08-25T07:47:18.506Z,21.46
2022-08-25T07:50:37.733Z,21.70
2022-08-25T07:53:46.582Z,21.69
2022-08-25T07:56:53.894Z,21.87
2022-08-25T08:00:09.716Z,21.82
2022-08-25T08:03:35.306Z,21.84
2022-08-25T08:06:48.793Z,21.96
2022-08-25T08:13:18.080Z,22.13
2022-08-25T08:16:33.481Z,22.19
2022-08-25T08:19:44.907Z,22.13
2022-08-25T08:22:54.056Z,22.37
2022-08-25T08:26:03.375Z,22.82
2022-08-25T08:29:13.492Z,23.50
2022-08-25T08:32:25.167Z,23.81
2022-08-25T08:35:42.779Z,23.47
2022-08-25T08:38:51.852Z,23.23
2022-08-25T08:42:19.018Z,23.39
2022-08-25T08:45:43.814Z,23.74
2022-08-25T08:49:05.054Z,24.35
2022-08-25T08:52:13.455Z,24.71
2022-08-25T08:55:35.915Z,24.88
2022-08-25T08:59:16.531Z,24.76
2022-08-25T09:02:51.565Z,24.75
2022-08-25T09:09:35.760Z,24.08
2022-08-25T09:13:35.992Z,24.46
2022-08-25T09:17:01.252Z,24.85
2022-08-25T09:20:39.022Z,25.13
2022-08-25T09:24:34.994Z,25.61
2022-08-25T09:27:44.172Z,25.82
2022-08-25T09:31:32.217Z,25.79
2022-08-25T09:34:42.556Z,25.92
2022-08-25T09:38:23.893Z,26.04
2022-08-25T09:41:47.795Z,26.42
2022-08-25T09:44:59.874Z,26.71
2022-08-25T09:48:27.007Z,26.80
2022-08-25T09:51:42.878Z,27.17
2022-08-25T09:54:55.293Z,27.22
2022-08-25T10:01:23.826Z,27.38
2022-08-25T10:04:35.265Z,27.24
2022-08-25T10:07:54.512Z,27.46
2022-08-25T10:11:06.506Z,27.41
2022-08-25T10:14:36.572Z,27.80
2022-08-25T10:17:45.010Z,27.68
2022-08-25T10:21:22.033Z,27.71
2022-08-25T10:24:29.259Z,27.96
2022-08-25T10:28:11.153Z,27.70
2022-08-25T10:31:37.956Z,28.49
2022-08-25T10:34:58.493Z,29.05
2022-08-25T10:38:10.314Z,28.99
2022-08-25T10:41:25.373Z,29.61
2022-08-25T10:45:21.618Z,29.75
2022-08-25T10:48:43.273Z,29.90
2022-08-25T10:51:55.278Z,29.88
2022-08-25T10:55:20.773Z,30.44
2022-08-25T10:59:12.711Z,30.56
2022-08-25T11:06:20.557Z,30.10
2022-08-25T11:09:41.952Z,29.78
2022-08-25T11:12:56.023Z,30.28
2022-08-25T11:16:19.724Z,30.91
2022-08-25T11:19:42.292Z,30.63
2022-08-25T11:23:12.435Z,30.82
2022-08-25T11:26:31.976Z,32.00
2022-08-25T11:29:48.132Z,31.65
2022-08-25T11:32:55.259Z,31.13
2022-08-25T11:36:40.352Z,30.34
2022-08-25T11:40:34.389Z,29.36
2022-08-25T11:44:17.012Z,28.69
2022-08-25T11:47:44.253Z,29.41
2022-08-25T11:51:09.668Z,30.91
2022-08-25T11:54:41.752Z,31.43
2022-08-25T11:57:53.896Z,31.42
2022-08-25T12:01:03.069Z,30.21
2022-08-25T12:04:17.739Z,30.06
2022-08-25T12:07:42.791Z,30.87
2022-08-25T12:11:06.087Z,30.46
2022-08-25T12:14:28.120Z,30.76
2022-08-25T12:17:43.234Z,32.38
2022-08-25T12:20:58.097Z,31.68
2022-08-25T12:24:06.789Z,30.84
2022-08-25T12:27:34.011Z,31.01
2022-08-25T12:31:00.643Z,31.12
2022-08-25T12:34:14.483Z,32.18
2022-08-25T12:37:27.431Z,32.96
2022-08-25T12:40:48.556Z,32.97
2022-08-25T12:44:36.425Z,33.10
2022-08-25T12:47:50.593Z,33.92
2022-08-25T12:51:35.559Z,34.15
2022-08-25T12:55:04.995Z,33.70
2022-08-25T12:58:16.853Z,33.84
2022-08-25T13:05:55.093Z,33.00
2022-08-25T13:13:09.993Z,33.95
2022-08-25T13:16:30.677Z,33.39
2022-08-25T13:19:38.632Z,34.18
2022-08-25T13:22:55.140Z,34.57
2022-08-25T13:26:10.993Z,34.72
2022-08-25T13:29:25.018Z,35.20
2022-08-25T13:32:41.270Z,35.60
2022-08-25T13:36:23.731Z,35.40
2022-08-25T13:39:55.375Z,35.72
2022-08-25T13:43:10.212Z,35.89
2022-08-25T13:46:23.867Z,36.39
2022-08-25T13:49:34.623Z,36.73
2022-08-25T13:52:41.654Z,36.24
2022-08-25T13:55:57.322Z,35.86
2022-08-25T13:59:07.714Z,34.45
2022-08-25T14:02:50.154Z,35.24
2022-08-25T14:06:14.273Z,34.73
2022-08-25T14:09:28.274Z,35.80
2022-08-25T14:12:51.314Z,35.70
2022-08-25T14:16:00.005Z,35.88
2022-08-25T14:19:08.655Z,36.17
2022-08-25T14:22:16.381Z,36.40
2022-08-25T14:25:24.254Z,35.11
2022-08-25T14:28:34.572Z,35.16
2022-08-25T14:31:44.465Z,35.74
2022-08-25T14:34:50.470Z,36.40
2022-08-25T14:38:00.963Z,36.40
2022-08-25T14:44:24.994Z,36.50
2022-08-25T14:47:38.252Z,36.91
2022-08-25T14:50:47.879Z,35.72
2022-08-25T14:54:10.201Z,36.40
2022-08-25T14:57:21.515Z,36.74
2022-08-25T15:00:32.585Z,36.81
2022-08-25T15:03:42.232Z,36.31
2022-08-25T15:07:30.749Z,36.75
2022-08-25T15:10:43.410Z,36.71
2022-08-25T15:13:53.474Z,36.93
2022-08-25T15:17:05.396Z,36.64
2022-08-25T15:20:15.500Z,36.22
2022-08-25T15:23:24.115Z,36.70
2022-08-25T15:26:32.974Z,36.52
2022-08-25T15:29:42.334Z,36.68
2022-08-25T15:32:51.995Z,36.63
2022-08-25T15:36:05.995Z,36.67
2022-08-25T15:39:15.614Z,36.18
2022-08-25T15:42:28.955Z,35.69
2022-08-25T15:45:38.133Z,36.06
2022-08-25T15:48:47.368Z,35.93
2022-08-25T15:51:55.694Z,35.72
2022-08-25T15:55:05.114Z,35.30
2022-08-25T15:58:13.333Z,35.12
2022-08-25T16:01:27.263Z,34.81
2022-08-25T16:04:39.575Z,34.63
2022-08-25T16:07:51.650Z,34.47
2022-08-25T16:11:00.934Z,34.17
2022-08-25T16:14:11.475Z,33.06
2022-08-25T16:17:21.512Z,32.30
2022-08-25T16:20:32.816Z,31.82
2022-08-25T16:23:41.385Z,31.24
2022-08-25T16:26:52.555Z,31.01
2022-08-25T16:30:05.012Z,30.66
2022-08-25T16:33:16.010Z,30.39
2022-08-25T16:36:27.321Z,30.00
2022-08-25T16:39:37.293Z,29.66
2022-08-25T16:42:48.513Z,29.47
2022-08-25T16:46:10.972Z,29.29
2022-08-25T16:49:19.578Z,29.02
2022-08-25T16:52:47.951Z,28.92
2022-08-25T16:56:11.526Z,28.72
2022-08-25T16:59:21.829Z,28.47
2022-08-25T17:02:32.171Z,28.26
2022-08-25T17:05:49.795Z,28.01
2022-08-25T17:09:01.433Z,27.73
2022-08-25T17:12:09.072Z,27.45
2022-08-25T17:15:24.573Z,27.31
2022-08-25T17:18:33.535Z,27.12
2022-08-25T17:21:45.895Z,26.81
2022-08-25T17:24:59.449Z,26.65
2022-08-25T17:31:27.376Z,26.29
2022-08-25T17:34:38.472Z,26.00
2022-08-25T17:37:49.930Z,25.71
2022-08-25T17:41:00.593Z,25.46
2022-08-25T17:44:09.013Z,25.28
2022-08-25T17:47:17.290Z,25.08
2022-08-25T17:50:29.418Z,24.87
2022-08-25T17:53:37.671Z,24.69
2022-08-25T17:56:46.119Z,24.56
2022-08-25T17:59:55.313Z,24.34
2022-08-25T18:03:06.732Z,24.20
2022-08-25T18:06:16.080Z,24.06
2022-08-25T18:09:24.756Z,23.89
2022-08-25T18:12:33.433Z,23.80
2022-08-25T18:15:42.526Z,23.66
2022-08-25T18:18:50.194Z,23.50
2022-08-25T18:22:00.269Z,23.45
2022-08-25T18:25:12.231Z,23.37
2022-08-25T18:28:20.719Z,23.21
2022-08-25T18:31:29.368Z,23.11
2022-08-25T18:34:39.313Z,22.97
2022-08-25T18:41:16.191Z,22.80
2022-08-25T18:44:24.210Z,22.68
2022-08-25T18:47:32.430Z,22.63
2022-08-25T18:54:00.848Z,22.45
2022-08-25T18:57:09.809Z,22.37
2022-08-25T19:00:20.223Z,22.26
2022-08-25T19:03:27.850Z,22.20
2022-08-25T19:06:39.370Z,22.12
2022-08-25T19:09:58.229Z,22.00
2022-08-25T19:13:08.524Z,21.93
2022-08-25T19:16:22.075Z,21.83
2022-08-25T19:19:30.931Z,21.78
2022-08-25T19:22:41.906Z,21.69
2022-08-25T19:25:50.089Z,21.63
2022-08-25T19:28:57.750Z,21.55
2022-08-25T19:32:05.051Z,21.55
2022-08-25T19:35:19.860Z,21.48
2022-08-25T19:38:33.720Z,21.39
2022-08-25T19:41:45.790Z,21.33
2022-08-25T19:44:57.331Z,21.27
2022-08-25T19:48:05.011Z,21.25
2022-08-25T19:51:12.810Z,21.19
2022-08-25T19:54:24.610Z,21.10
2022-08-25T19:57:42.428Z,21.04
2022-08-25T20:00:54.299Z,20.98
2022-08-25T20:04:02.110Z,20.95
2022-08-25T20:07:12.364Z,20.94
2022-08-25T20:10:21.234Z,20.83
2022-08-25T20:13:28.617Z,20.77
2022-08-25T20:16:36.042Z,20.68
2022-08-25T20:19:44.849Z,20.62
2022-08-25T20:22:52.732Z,20.54
2022-08-25T20:26:04.889Z,20.51
2022-08-25T20:29:17.649Z,20.45
2022-08-25T20:32:26.010Z,20.38
2022-08-25T20:35:40.192Z,20.38
2022-08-25T20:38:47.938Z,20.34
2022-08-25T20:41:55.985Z,20.31
2022-08-25T20:45:09.902Z,20.28
2022-08-25T20:48:18.052Z,20.20
2022-08-25T20:54:51.601Z,20.11
2022-08-25T20:58:00.269Z,20.09
2022-08-25T21:01:41.319Z,20.07
2022-08-25T21:04:48.974Z,20.00
2022-08-25T21:07:58.837Z,20.00
2022-08-25T21:11:06.109Z,20.01
2022-08-25T21:14:14.168Z,19.98
2022-08-25T21:17:23.089Z,19.95
2022-08-25T21:20:30.722Z,19.89
2022-08-25T21:23:37.750Z,19.84
2022-08-25T21:26:49.210Z,19.78
2022-08-25T21:29:56.168Z,19.73
2022-08-25T21:33:03.920Z,19.72
2022-08-25T21:36:13.430Z,19.69
2022-08-25T21:39:22.591Z,19.59
2022-08-25T21:42:30.450Z,19.58
2022-08-25T21:45:46.785Z,19.57
2022-08-25T21:48:54.449Z,19.55
2022-08-25T21:52:05.191Z,19.55
2022-08-25T21:55:16.295Z,19.53
2022-08-25T21:58:25.134Z,19.49
2022-08-25T22:01:32.750Z,19.45
2022-08-25T22:04:41.413Z,19.42
2022-08-25T22:07:50.453Z,19.37
2022-08-25T22:11:01.112Z,19.35
2022-08-25T22:14:08.552Z,19.32
2022-08-25T22:17:21.182Z,19.29
2022-08-25T22:20:33.391Z,19.25
2022-08-25T22:23:44.595Z,19.22
2022-08-25T22:26:53.509Z,19.19
2022-08-25T22:30:03.832Z,19.11
2022-08-25T22:33:15.211Z,19.08
2022-08-25T22:36:33.893Z,19.08
2022-08-25T22:39:40.690Z,19.05
2022-08-25T22:42:48.872Z,19.01
2022-08-25T22:46:04.727Z,18.97
2022-08-25T22:49:15.632Z,18.95
2022-08-25T22:52:22.929Z,18.90
2022-08-25T22:55:46.731Z,18.85
2022-08-25T22:58:54.171Z,18.84
2022-08-25T23:02:02.952Z,18.80
2022-08-25T23:05:11.269Z,18.79
2022-08-25T23:08:38.931Z,18.79
2022-08-25T23:11:46.709Z,18.79
2022-08-25T23:14:54.792Z,18.80
2022-08-25T23:18:02.032Z,18.68
2022-08-25T23:21:34.998Z,18.69
2022-08-25T23:24:50.331Z,18.61
2022-08-25T23:27:58.229Z,18.59
2022-08-25T23:31:11.421Z,18.63
2022-08-25T23:34:20.109Z,18.64
2022-08-25T23:37:27.313Z,18.64
2022-08-25T23:40:36.671Z,18.63
2022-08-25T23:43:43.932Z,18.61
2022-08-25T23:46:51.993Z,18.62
2022-08-25T23:49:59.069Z,18.60
2022-08-25T23:53:08.039Z,18.56
2022-08-25T23:56:15.429Z,18.64
2022-08-25T23:59:25.531Z,18.62
